Keedysville, MD (21756)

6:03 AM EST on February 08, 2016 (GMT -0500)
Keedysville, MD | | Change Station
CLOSE
Current Station
Personal Weather Station
Location: Keedysville, MD
Elevation: 1027 ft
Nearby Weather Stations

Elev 1027 ft 39.41 °N, 77.68 °W | Updated 4 seconds ago

Partly Cloudy
Partly Cloudy
29.0 °F
Feels Like 29 °F
N
0.0
Wind Variable Wind from SSE
Gusts 0.0 mph

Today
High -- | Low -- °F
--% Chance of Precip.
Yesterday
High -- | Low -- °F
Precip. -- in
Pressure 29.81 in
Visibility 5.0 miles
Clouds Clear
Windchill 29 °F
Dew Point 22 °F
Humidity 75%
Rainfall 0.00 in
Snow Depth Not available.
7:11 AM 5:38 PM
Waning Crescent, 0% visible
METAR KMRB 081053Z AUTO 00000KT 5SM BR CLR M07/M08 A2979 RMK AO2 SLP095 T10671083 TSNO
Pressure 29.81 in
Visibility 5.0 miles
Clouds Clear
Windchill 29 °F
Dew Point 22 °F
Humidity 75%
Rainfall 0.00 in
Snow Depth Not available.
7:11 AM 5:38 PM
Waning Crescent, 0% visible
METAR KMRB 081053Z AUTO 00000KT 5SM BR CLR M07/M08 A2979 RMK AO2 SLP095 T10671083 TSNO

10-Day Weather Forecast

Almanac

Astronomy

Feb. 08, 2016 Rise Set
Actual Time
Civil Twilight
Nautical Twilight
Astronomical Twilight
Moon
Length of Visible Light
Length of Day
Tomorrow will be .
, % of the Moon is Illuminated

Today's Extremes

State Highs State Lows

Community

WunderPhotos

Upload Photos

1,891,420 photos uploaded!

WunderBlog® & News

Nearby

Air Quality

  Air Quality AQ Index Pollutant
Not available.

Snow Depth

Station Depth Elevation

Earthquake Activity

City Distance Mag. Time & Date
Minimum magnitude displayed is 2.5.

Coastal Water Temperatures

Place Temperature

Stations

Nearby Weather Stations

Station Location Temp. Windchill Dew Point Humidity Wind Precip. Elev Updated Type
                   

Watches & Warnings

There are currently no watches in effect.